Time;durP1;ratioP1;P1;durP2;ratioP2;P2;SDS_P1;SDS_P2;PMS_P1;PMS_P2;Temp;Humidity;BMP_temperature;BMP_pressure;BME280_temperature;BME280_humidity;BME280_pressure;Samples;Min_cycle;Max_cycle;Signal;HPM_P1;HPM_P2
2023/03/03 00:00:09;;;;;;;66.00;9.63;;;3.90;99.90;;;;;;4178235;28;20111;-84
2023/03/03 00:02:10;;;;;;;68.75;8.93;;;3.90;99.90;;;;;;4146187;28;20056;-84
2023/03/03 00:04:11;;;;;;;141.25;10.88;;;3.80;99.90;;;;;;4187614;28;20529;-84
2023/03/03 00:06:13;;;;;;;92.30;9.70;;;3.70;99.90;;;;;;4186961;28;20049;-83
2023/03/03 00:08:14;;;;;;;66.15;9.20;;;3.70;99.90;;;;;;4160164;28;20045;-85
2023/03/03 00:10:15;;;;;;;88.22;9.32;;;4.00;99.90;;;;;;4179945;28;20072;-84
2023/03/03 00:12:27;;;;;;;114.55;9.95;;;3.60;99.90;;;;;;4142992;28;20054;-84
2023/03/03 00:14:31;;;;;;;63.17;8.63;;;3.60;99.90;;;;;;4148816;28;20076;-84
2023/03/03 00:16:39;;;;;;;101.93;9.07;;;3.60;99.90;;;;;;4190757;28;20064;-84
2023/03/03 00:18:43;;;;;;;82.03;9.15;;;3.60;99.90;;;;;;4192464;28;20033;-86
2023/03/03 00:20:51;;;;;;;94.90;8.80;;;3.60;99.90;;;;;;4153600;28;20054;-84
2023/03/03 00:22:52;;;;;;;110.45;9.35;;;3.60;99.90;;;;;;4181910;28;20041;-84
2023/03/03 00:24:53;;;;;;;101.15;9.05;;;3.60;99.90;;;;;;4178961;28;20045;-84
2023/03/03 00:27:01;;;;;;;127.65;10.18;;;3.50;99.90;;;;;;4179338;28;20132;-84
2023/03/03 00:29:36;;;;;;;120.68;9.55;;;3.50;99.90;;;;;;4135505;28;20097;-83
2023/03/03 00:31:39;;;;;;;124.93;9.57;;;3.50;99.90;;;;;;4163004;28;20049;-84
2023/03/03 00:33:54;;;;;;;118.28;10.57;;;3.50;99.90;;;;;;4162703;28;20064;-84
2023/03/03 00:35:56;;;;;;;92.22;9.27;;;3.50;99.90;;;;;;4149691;28;20536;-84
2023/03/03 00:38:00;;;;;;;75.68;8.55;;;3.60;99.90;;;;;;4139876;28;20052;-84
2023/03/03 00:40:40;;;;;;;72.28;8.68;;;3.40;99.90;;;;;;4158173;28;20501;-84
2023/03/03 00:42:46;;;;;;;76.22;8.85;;;3.40;99.90;;;;;;4084452;29;20472;-84
2023/03/03 00:44:59;;;;;;;92.20;9.30;;;3.30;99.90;;;;;;4100506;29;20193;-84
2023/03/03 00:47:37;;;;;;;88.43;8.30;;;2.60;99.90;;;;;;4090336;28;20051;-84
2023/03/03 00:49:38;;;;;;;76.05;8.60;;;3.20;99.90;;;;;;4149085;28;20042;-83
2023/03/03 00:51:42;;;;;;;101.47;8.45;;;3.20;99.90;;;;;;4166819;28;20034;-85
2023/03/03 00:53:44;;;;;;;96.68;8.10;;;3.10;99.90;;;;;;4169942;28;20053;-84
2023/03/03 00:55:48;;;;;;;96.53;9.10;;;3.10;99.90;;;;;;4143105;28;20038;-84
2023/03/03 00:57:49;;;;;;;130.80;7.85;;;3.00;99.90;;;;;;4163631;28;20045;-84
2023/03/03 00:59:50;;;;;;;41.20;6.00;;;3.00;99.90;;;;;;4165180;28;20052;-84
2023/03/03 01:01:53;;;;;;;128.55;8.43;;;2.80;99.90;;;;;;4159370;28;20517;-85
2023/03/03 01:03:53;;;;;;;93.10;8.68;;;2.80;99.90;;;;;;4139756;28;20085;-84
2023/03/03 01:05:54;;;;;;;89.00;6.63;;;2.70;99.90;;;;;;4167011;28;20072;-85
2023/03/03 01:07:55;;;;;;;124.47;7.57;;;2.70;99.90;;;;;;4159313;28;20046;-85
2023/03/03 01:09:56;;;;;;;106.22;7.80;;;2.60;99.90;;;;;;4140155;28;20050;-85
2023/03/03 01:11:58;;;;;;;58.83;5.90;;;2.80;99.90;;;;;;4165957;28;20053;-85
2023/03/03 01:13:59;;;;;;;43.22;6.90;;;2.60;99.90;;;;;;4158168;28;20185;-85
2023/03/03 01:16:01;;;;;;;89.85;6.78;;;3.50;99.90;;;;;;4156568;28;20509;-85
2023/03/03 01:18:02;;;;;;;49.35;5.88;;;2.60;99.90;;;;;;4149207;28;20177;-85
2023/03/03 01:20:04;;;;;;;120.20;7.75;;;2.40;99.90;;;;;;4159180;28;20042;-85
2023/03/03 01:22:05;;;;;;;112.35;7.60;;;2.30;99.90;;;;;;4154202;28;20089;-85
2023/03/03 01:24:06;;;;;;;80.78;7.38;;;2.20;99.90;;;;;;4170213;28;20042;-85
2023/03/03 01:26:07;;;;;;;89.22;6.70;;;2.20;99.90;;;;;;4171871;28;20060;-85
2023/03/03 01:28:08;;;;;;;53.30;5.07;;;3.10;99.90;;;;;;4159881;28;20529;-85
2023/03/03 01:30:09;;;;;;;51.85;5.28;;;2.10;99.90;;;;;;4140210;28;20050;-85
2023/03/03 01:32:10;;;;;;;61.95;6.88;;;2.10;99.90;;;;;;4157619;28;20045;-84
2023/03/03 01:34:11;;;;;;;82.47;6.13;;;3.20;99.90;;;;;;4182804;28;20033;-84
2023/03/03 01:36:13;;;;;;;43.72;4.93;;;2.40;99.90;;;;;;4173691;28;20047;-84
2023/03/03 01:38:16;;;;;;;40.95;5.53;;;1.80;99.90;;;;;;4142373;28;20077;-84
2023/03/03 01:40:23;;;;;;;60.80;5.65;;;1.80;99.90;;;;;;4182895;28;20499;-84
2023/03/03 01:42:27;;;;;;;84.90;6.20;;;2.30;99.90;;;;;;4138176;28;20343;-84
2023/03/03 01:44:28;;;;;;;53.15;5.78;;;0.70;99.90;;;;;;4160477;28;20041;-84
2023/03/03 01:46:47;;;;;;;50.17;4.97;;;1.70;99.90;;;;;;4137970;28;20395;-84
2023/03/03 01:48:50;;;;;;;47.63;5.47;;;1.70;99.90;;;;;;4181208;28;20045;-84
2023/03/03 01:50:56;;;;;;;89.38;6.65;;;2.90;99.90;;;;;;4181932;28;20060;-84
2023/03/03 01:53:00;;;;;;;94.90;6.40;;;1.60;99.90;;;;;;4176374;28;20061;-84
2023/03/03 01:55:08;;;;;;;57.05;5.95;;;1.90;99.90;;;;;;4183374;28;20045;-84
2023/03/03 01:57:14;;;;;;;63.53;5.72;;;1.50;99.90;;;;;;4145067;28;20606;-84
2023/03/03 01:59:21;;;;;;;39.05;4.40;;;1.50;99.90;;;;;;4164310;28;20041;-84
2023/03/03 02:01:26;;;;;;;45.28;5.10;;;1.80;99.90;;;;;;4179023;28;20043;-84
2023/03/03 02:03:29;;;;;;;42.63;4.57;;;1.90;99.90;;;;;;4145652;28;20043;-84
2023/03/03 02:05:31;;;;;;;43.70;4.65;;;1.70;99.90;;;;;;4173158;28;20512;-84
2023/03/03 02:07:32;;;;;;;61.97;6.00;;;0.60;99.90;;;;;;4182227;28;20120;-84
2023/03/03 02:10:16;;;;;;;20.60;4.22;;;1.50;99.90;;;;;;4161219;28;20495;-84
2023/03/03 02:12:24;;;;;;;15.80;4.18;;;1.40;99.90;;;;;;4083259;29;20071;-84
2023/03/03 02:14:25;;;;;;;18.35;4.00;;;1.50;99.90;;;;;;4105393;28;20389;-84
2023/03/03 02:16:26;;;;;;;14.80;4.45;;;2.40;99.90;;;;;;4116199;28;20178;-84
2023/03/03 02:18:27;;;;;;;10.85;4.32;;;2.50;99.90;;;;;;4178093;28;20041;-84
2023/03/03 02:20:42;;;;;;;11.05;4.38;;;2.50;99.90;;;;;;4161117;28;20509;-84
2023/03/03 02:23:06;;;;;;;7.22;3.78;;;2.10;99.90;;;;;;4183178;28;20517;-84
2023/03/03 02:25:14;;;;;;;7.05;3.42;;;1.70;99.90;;;;;;4148455;28;20384;-84
2023/03/03 02:27:17;;;;;;;7.68;3.85;;;2.40;99.90;;;;;;4166311;28;20049;-84
2023/03/03 02:29:18;;;;;;;6.93;3.50;;;1.30;99.90;;;;;;4164501;28;20041;-84
2023/03/03 02:31:23;;;;;;;6.03;3.42;;;0.90;99.90;;;;;;4134273;28;20558;-83
2023/03/03 02:33:25;;;;;;;6.63;3.47;;;2.20;99.90;;;;;;4165596;28;20420;-84
2023/03/03 02:35:28;;;;;;;5.55;3.08;;;1.20;99.90;;;;;;4146593;28;20405;-84
2023/03/03 02:37:30;;;;;;;5.75;3.33;;;1.10;99.90;;;;;;4152913;28;20486;-84
2023/03/03 02:39:31;;;;;;;6.53;3.80;;;1.10;99.90;;;;;;4161220;28;20592;-84
2023/03/03 02:41:34;;;;;;;6.88;2.88;;;2.40;99.90;;;;;;4152661;28;20076;-84
2023/03/03 02:43:46;;;;;;;7.10;3.30;;;1.00;99.90;;;;;;4162258;28;20125;-84
2023/03/03 02:45:50;;;;;;;9.38;3.72;;;1.70;99.90;;;;;;4158546;28;20575;-84
2023/03/03 02:47:51;;;;;;;5.47;3.35;;;1.10;99.90;;;;;;4168852;28;20127;-84
2023/03/03 02:49:52;;;;;;;7.45;4.15;;;1.90;99.90;;;;;;4147494;28;20085;-84
2023/03/03 02:51:53;;;;;;;7.65;3.90;;;2.00;99.90;;;;;;4166642;28;20044;-84
2023/03/03 02:53:54;;;;;;;8.82;4.75;;;0.80;99.90;;;;;;4163057;28;20081;-84
2023/03/03 02:55:55;;;;;;;6.30;3.63;;;0.90;99.90;;;;;;4148791;28;20103;-84
2023/03/03 02:57:57;;;;;;;7.70;3.67;;;0.80;99.90;;;;;;4158560;28;20542;-84
2023/03/03 02:59:58;;;;;;;7.80;3.67;;;2.00;99.90;;;;;;4155758;28;20055;-84
2023/03/03 03:02:00;;;;;;;9.63;3.72;;;2.10;99.90;;;;;;4149114;28;20077;-84
2023/03/03 03:04:09;;;;;;;7.00;3.40;;;0.80;99.90;;;;;;4166410;28;20101;-84
2023/03/03 03:06:10;;;;;;;6.15;3.65;;;0.70;99.90;;;;;;4161791;28;20069;-84
2023/03/03 03:08:12;;;;;;;6.90;3.78;;;0.70;99.90;;;;;;4133775;28;20493;-83
2023/03/03 03:10:13;;;;;;;7.32;3.97;;;1.60;99.90;;;;;;4149543;28;20050;-84
2023/03/03 03:12:14;;;;;;;7.53;3.92;;;0.60;99.90;;;;;;4165903;28;20592;-84
2023/03/03 03:14:16;;;;;;;6.88;4.03;;;0.60;99.90;;;;;;4155760;28;20113;-84
2023/03/03 03:16:18;;;;;;;10.70;4.47;;;1.70;99.90;;;;;;4161171;28;20045;-84
2023/03/03 03:18:19;;;;;;;6.93;3.75;;;0.60;99.90;;;;;;4174371;28;20087;-84
2023/03/03 03:20:20;;;;;;;9.38;4.05;;;0.70;99.90;;;;;;4168623;28;20045;-84
2023/03/03 03:22:21;;;;;;;9.68;4.03;;;1.10;99.90;;;;;;4162089;28;20614;-84
2023/03/03 03:24:21;;;;;;;7.30;3.78;;;1.90;99.90;;;;;;4154609;28;20088;-84
2023/03/03 03:26:22;;;;;;;6.93;3.90;;;1.90;99.90;;;;;;4172648;28;20061;-84
2023/03/03 03:28:24;;;;;;;6.68;3.42;;;1.20;99.90;;;;;;4168020;28;20050;-84
2023/03/03 03:30:25;;;;;;;7.38;3.92;;;0.60;99.90;;;;;;4165774;28;20112;-84
2023/03/03 03:32:29;;;;;;;8.68;4.35;;;1.80;99.90;;;;;;4169069;28;20445;-84
2023/03/03 03:34:30;;;;;;;9.35;3.75;;;0.30;99.90;;;;;;4151520;28;20434;-84
2023/03/03 03:36:31;;;;;;;7.50;3.72;;;0.60;99.90;;;;;;4140119;28;20457;-84
2023/03/03 03:38:35;;;;;;;7.03;3.50;;;1.40;99.90;;;;;;4164242;28;20046;-84
2023/03/03 03:40:37;;;;;;;7.25;3.25;;;1.40;99.90;;;;;;4156417;28;20415;-84
2023/03/03 03:42:40;;;;;;;7.93;3.40;;;0.60;99.90;;;;;;4164584;28;20041;-84
2023/03/03 03:44:41;;;;;;;8.35;2.90;;;0.80;99.90;;;;;;4146016;28;20041;-84
2023/03/03 03:46:41;;;;;;;8.38;3.55;;;0.50;99.90;;;;;;4152348;28;20463;-83
2023/03/03 03:48:44;;;;;;;9.55;3.88;;;1.60;99.90;;;;;;4156851;28;20049;-84
2023/03/03 03:50:49;;;;;;;7.35;3.78;;;0.60;99.90;;;;;;4166127;28;20486;-84
2023/03/03 03:52:51;;;;;;;7.63;3.58;;;1.30;99.90;;;;;;4158143;28;20068;-84
2023/03/03 03:54:52;;;;;;;9.02;3.80;;;0.60;99.90;;;;;;4168592;28;20509;-84
2023/03/03 03:56:53;;;;;;;8.00;4.13;;;1.30;99.90;;;;;;4168895;28;20033;-84
2023/03/03 03:58:55;;;;;;;6.70;3.63;;;0.50;99.90;;;;;;4140432;28;20041;-84
2023/03/03 04:01:03;;;;;;;9.10;4.40;;;1.60;99.90;;;;;;4163513;28;20556;-84
2023/03/03 04:03:05;;;;;;;8.88;4.57;;;1.80;99.90;;;;;;4168574;28;20125;-84
2023/03/03 04:05:06;;;;;;;9.15;4.15;;;1.50;99.90;;;;;;4157298;28;20490;-84
2023/03/03 04:07:08;;;;;;;7.85;3.20;;;0.50;99.90;;;;;;4167334;28;20051;-84
2023/03/03 04:09:09;;;;;;;10.00;3.90;;;0.60;99.90;;;;;;4167074;28;20445;-84
2023/03/03 04:11:12;;;;;;;5.13;2.90;;;1.70;99.90;;;;;;4150629;28;20572;-85
2023/03/03 04:13:19;;;;;;;8.05;3.72;;;0.50;99.90;;;;;;4135985;28;20054;-84
2023/03/03 04:15:25;;;;;;;10.02;3.50;;;0.40;99.90;;;;;;4150493;28;20057;-83
2023/03/03 04:17:27;;;;;;;7.00;3.58;;;1.60;99.90;;;;;;4168641;28;20037;-83
2023/03/03 04:19:28;;;;;;;8.23;4.47;;;-0.20;99.90;;;;;;4168150;28;20478;-83
2023/03/03 04:21:29;;;;;;;6.95;3.25;;;0.50;99.90;;;;;;4168576;28;20178;-83
2023/03/03 04:23:30;;;;;;;7.45;4.00;;;0.40;99.90;;;;;;4153066;28;20183;-83
2023/03/03 04:25:31;;;;;;;9.38;3.97;;;0.40;99.90;;;;;;4150557;28;20125;-83
2023/03/03 04:27:34;;;;;;;8.45;4.25;;;0.80;99.90;;;;;;4165862;28;20045;-84
2023/03/03 04:29:36;;;;;;;8.32;3.47;;;1.70;99.90;;;;;;4167839;28;20049;-84
2023/03/03 04:31:37;;;;;;;11.40;3.72;;;0.10;99.90;;;;;;4151455;28;20053;-83
2023/03/03 04:33:37;;;;;;;7.22;3.72;;;0.30;99.90;;;;;;4147944;28;20113;-83
2023/03/03 04:35:38;;;;;;;10.30;3.70;;;0.30;99.90;;;;;;4156302;28;20157;-83
2023/03/03 04:37:40;;;;;;;5.90;3.08;;;0.30;99.90;;;;;;4169499;28;20049;-81
2023/03/03 04:39:42;;;;;;;7.13;3.40;;;0.70;99.90;;;;;;4166003;28;20564;-84
2023/03/03 04:41:44;;;;;;;6.65;3.42;;;1.10;99.90;;;;;;4166763;28;20056;-84
2023/03/03 04:43:45;;;;;;;6.05;3.65;;;1.00;99.90;;;;;;4145591;28;20089;-83
2023/03/03 04:45:47;;;;;;;6.70;3.20;;;1.30;99.90;;;;;;4156675;28;20037;-84
2023/03/03 04:47:50;;;;;;;6.03;3.33;;;0.70;99.90;;;;;;4160940;28;20061;-85
2023/03/03 04:49:52;;;;;;;5.13;2.70;;;0.30;99.90;;;;;;4156479;28;20095;-83
2023/03/03 04:51:53;;;;;;;6.43;3.60;;;1.10;99.90;;;;;;4153722;28;20133;-83
2023/03/03 04:53:55;;;;;;;6.07;3.53;;;0.10;99.90;;;;;;4165946;28;20083;-83
2023/03/03 04:55:58;;;;;;;6.40;3.30;;;1.00;99.90;;;;;;4160018;28;20107;-83
2023/03/03 04:58:00;;;;;;;7.03;3.28;;;0.20;99.90;;;;;;4166030;28;20050;-83
2023/03/03 05:00:00;;;;;;;6.65;3.40;;;0.40;99.90;;;;;;4159012;28;20050;-83
2023/03/03 05:02:04;;;;;;;7.68;3.30;;;0.10;99.90;;;;;;4151547;28;20056;-83
2023/03/03 05:04:05;;;;;;;7.13;3.17;;;1.40;99.90;;;;;;4151995;28;20052;-83
2023/03/03 05:06:07;;;;;;;6.22;2.97;;;-0.80;99.90;;;;;;4142343;28;20053;-83
2023/03/03 05:08:09;;;;;;;5.78;3.20;;;0.20;99.90;;;;;;4166212;28;20132;-83
2023/03/03 05:10:10;;;;;;;6.88;3.83;;;0.20;99.90;;;;;;4167360;28;20069;-83
2023/03/03 05:12:11;;;;;;;9.95;3.78;;;1.00;99.90;;;;;;4167749;28;20049;-83
2023/03/03 05:14:13;;;;;;;7.88;2.90;;;1.30;99.90;;;;;;4158969;28;20052;-83
2023/03/03 05:16:15;;;;;;;8.80;3.63;;;0.30;99.90;;;;;;4133733;28;20054;-83
2023/03/03 05:18:18;;;;;;;7.68;3.13;;;0.30;99.90;;;;;;4142006;28;20057;-83
2023/03/03 05:20:22;;;;;;;9.13;3.47;;;0.60;99.90;;;;;;4156097;28;20081;-84
2023/03/03 05:22:23;;;;;;;7.65;3.55;;;0.30;99.90;;;;;;4154038;28;20563;-84
2023/03/03 05:24:24;;;;;;;9.38;3.42;;;0.30;99.90;;;;;;4156617;28;20042;-84
2023/03/03 05:26:25;;;;;;;9.35;4.03;;;0.20;99.90;;;;;;4160746;28;20537;-84
2023/03/03 05:28:27;;;;;;;6.47;2.85;;;1.20;99.90;;;;;;4143643;28;20053;-84
2023/03/03 05:30:29;;;;;;;5.40;2.95;;;1.10;99.90;;;;;;4172671;28;20076;-83
2023/03/03 05:32:30;;;;;;;6.63;3.65;;;0.20;99.90;;;;;;4133660;28;20054;-84
2023/03/03 05:34:31;;;;;;;11.35;3.17;;;0.20;99.90;;;;;;4161359;28;20516;-84
2023/03/03 05:36:33;;;;;;;5.70;3.10;;;0.20;99.90;;;;;;4137460;28;20137;-85
2023/03/03 05:38:35;;;;;;;8.50;3.35;;;0.20;99.90;;;;;;4177462;28;20052;-85
2023/03/03 05:40:38;;;;;;;7.65;3.40;;;1.20;99.90;;;;;;4166028;28;20084;-85
2023/03/03 05:42:38;;;;;;;9.35;3.22;;;1.30;99.90;;;;;;4136147;28;20086;-85
2023/03/03 05:44:41;;;;;;;5.53;3.22;;;1.30;99.90;;;;;;4145270;28;20061;-85
2023/03/03 05:46:43;;;;;;;8.07;3.42;;;0.50;99.90;;;;;;4180887;28;20540;-85
2023/03/03 05:48:45;;;;;;;6.57;3.17;;;1.30;99.90;;;;;;4146450;28;23659;-85
2023/03/03 05:50:47;;;;;;;6.05;3.50;;;0.20;99.90;;;;;;4151055;28;20061;-84
2023/03/03 05:52:50;;;;;;;7.63;3.70;;;1.40;99.90;;;;;;4135007;28;20092;-84
2023/03/03 05:54:53;;;;;;;9.18;3.58;;;0.10;99.90;;;;;;4180671;28;20593;-84
2023/03/03 05:56:56;;;;;;;11.77;3.58;;;1.30;99.90;;;;;;4175412;28;20439;-84
2023/03/03 05:58:56;;;;;;;7.45;3.95;;;1.30;99.90;;;;;;4182179;28;20052;-84
2023/03/03 06:00:58;;;;;;;5.90;3.17;;;0.20;99.90;;;;;;4182779;28;20041;-83
2023/03/03 06:03:00;;;;;;;8.02;3.50;;;0.10;99.90;;;;;;4149360;28;20124;-83
2023/03/03 06:05:01;;;;;;;8.57;4.60;;;0.60;99.90;;;;;;4149121;28;20410;-83
2023/03/03 06:07:02;;;;;;;9.07;3.33;;;0.30;99.90;;;;;;4182461;28;20044;-83
2023/03/03 06:09:03;;;;;;;7.40;3.67;;;1.00;99.90;;;;;;4165232;28;20045;-83
2023/03/03 06:11:04;;;;;;;6.70;3.65;;;0.60;99.90;;;;;;4164490;28;20061;-83
2023/03/03 06:13:06;;;;;;;7.22;3.65;;;0.30;99.90;;;;;;4182577;28;20041;-83
2023/03/03 06:15:09;;;;;;;10.18;3.55;;;0.50;99.90;;;;;;4170881;28;20551;-83
2023/03/03 06:17:11;;;;;;;8.80;3.50;;;0.10;99.90;;;;;;4165756;28;20049;-87
2023/03/03 06:19:13;;;;;;;7.88;3.20;;;1.30;99.90;;;;;;4154739;28;20175;-81
2023/03/03 06:21:14;;;;;;;8.77;4.05;;;-0.60;99.90;;;;;;4181885;28;20048;-81
2023/03/03 06:23:15;;;;;;;8.70;4.18;;;1.10;99.90;;;;;;4152526;28;20489;-81
2023/03/03 06:25:16;;;;;;;8.25;3.63;;;0.00;99.90;;;;;;4182614;28;20059;-81
2023/03/03 06:27:18;;;;;;;9.63;3.97;;;0.00;99.90;;;;;;4163442;28;20425;-81
2023/03/03 06:29:20;;;;;;;6.53;3.20;;;0.00;99.90;;;;;;4135132;28;20046;-83
2023/03/03 06:31:21;;;;;;;9.18;3.45;;;0.90;99.90;;;;;;4147243;28;20057;-82
2023/03/03 06:33:23;;;;;;;10.45;3.80;;;0.30;99.90;;;;;;4169064;28;20570;-81
2023/03/03 06:35:23;;;;;;;8.48;4.30;;;1.20;99.90;;;;;;4146417;28;20583;-82
2023/03/03 06:37:24;;;;;;;8.15;3.90;;;0.00;99.90;;;;;;4155814;28;20069;-81
2023/03/03 06:39:25;;;;;;;7.28;3.47;;;0.10;99.90;;;;;;4181651;28;20041;-84
2023/03/03 06:41:26;;;;;;;12.77;4.50;;;1.20;99.90;;;;;;4153904;28;20486;-82
2023/03/03 06:43:27;;;;;;;7.93;3.95;;;0.20;99.90;;;;;;4154432;28;20045;-84
2023/03/03 06:45:33;;;;;;;8.10;3.85;;;0.20;99.90;;;;;;4149700;28;20114;-77
2023/03/03 06:47:35;;;;;;;8.48;4.13;;;1.00;99.90;;;;;;4154830;28;20041;-81
2023/03/03 06:49:36;;;;;;;6.60;3.38;;;-0.50;99.90;;;;;;4147975;28;20545;-81
2023/03/03 06:51:39;;;;;;;10.27;4.25;;;0.30;99.90;;;;;;4156941;28;20108;-82
2023/03/03 06:53:40;;;;;;;7.63;3.60;;;0.40;99.90;;;;;;4141130;28;20449;-81
2023/03/03 06:55:43;;;;;;;11.90;3.75;;;1.60;99.90;;;;;;4157573;28;20077;-82
2023/03/03 06:57:44;;;;;;;10.65;4.25;;;0.40;99.90;;;;;;4186952;28;20080;-81
2023/03/03 06:59:50;;;;;;;7.70;3.70;;;0.50;99.90;;;;;;4153233;28;20050;-82
2023/03/03 07:01:52;;;;;;;8.68;3.85;;;1.10;99.90;;;;;;4186638;28;20083;-83
2023/03/03 07:03:56;;;;;;;9.02;4.00;;;0.50;99.90;;;;;;4186573;28;20485;-83
2023/03/03 07:05:57;;;;;;;9.52;4.18;;;1.60;99.90;;;;;;4186883;28;20520;-83
2023/03/03 07:07:59;;;;;;;9.07;4.28;;;0.50;99.90;;;;;;4170229;28;20045;-84
2023/03/03 07:10:12;;;;;;;18.63;4.50;;;1.00;99.90;;;;;;4145549;28;20165;-84
2023/03/03 07:12:16;;;;;;;10.80;3.60;;;1.30;99.90;;;;;;4161301;28;20537;-82
2023/03/03 07:14:19;;;;;;;8.27;5.05;;;2.30;99.90;;;;;;4176033;28;20041;-83
2023/03/03 07:16:25;;;;;;;10.38;5.05;;;2.10;99.90;;;;;;4161226;28;20429;-84
2023/03/03 07:18:44;;;;;;;8.60;4.18;;;2.50;99.90;;;;;;4139714;28;20074;-83
2023/03/03 07:20:45;;;;;;;7.72;3.92;;;2.80;99.90;;;;;;4147388;28;20054;-83
2023/03/03 07:22:47;;;;;;;8.27;3.65;;;2.20;99.90;;;;;;4182497;28;20499;-83
2023/03/03 07:24:51;;;;;;;9.60;4.63;;;2.60;99.90;;;;;;4168819;28;20095;-83
2023/03/03 07:27:13;;;;;;;7.97;3.95;;;2.40;99.90;;;;;;4167311;28;21031;-79
2023/03/03 07:29:29;;;;;;;12.27;3.80;;;2.30;99.90;;;;;;4159346;28;20445;-81
2023/03/03 07:31:34;;;;;;;10.75;4.72;;;2.30;99.90;;;;;;4166828;28;20041;-80
2023/03/03 07:33:43;;;;;;;7.47;3.45;;;2.30;99.90;;;;;;4183091;28;20110;-80
2023/03/03 07:35:46;;;;;;;8.18;4.18;;;2.30;99.90;;;;;;4184430;28;20408;-80
2023/03/03 07:37:47;;;;;;;12.85;5.07;;;2.90;99.90;;;;;;4183973;28;20045;-83
2023/03/03 07:39:49;;;;;;;10.68;4.10;;;2.20;99.90;;;;;;4160796;28;20410;-83
2023/03/03 07:41:50;;;;;;;8.52;4.15;;;2.20;99.90;;;;;;4164087;28;20045;-82
2023/03/03 07:43:57;;;;;;;8.55;3.92;;;2.10;99.90;;;;;;4159650;28;20402;-83
2023/03/03 07:46:08;;;;;;;9.57;3.90;;;2.10;99.90;;;;;;4157404;28;20110;-82
2023/03/03 07:48:12;;;;;;;7.82;3.83;;;2.10;99.90;;;;;;4183907;28;20041;-82
2023/03/03 07:50:18;;;;;;;10.30;4.15;;;2.00;99.90;;;;;;4183531;28;20051;-82
2023/03/03 07:52:38;;;;;;;10.18;4.07;;;2.10;99.90;;;;;;4159928;28;20053;-82
2023/03/03 07:54:42;;;;;;;9.65;4.10;;;2.10;99.90;;;;;;4169018;28;20497;-83
2023/03/03 07:56:55;;;;;;;15.05;5.30;;;2.10;99.90;;;;;;4171832;28;20083;-92
2023/03/03 07:58:57;;;;;;;8.43;4.50;;;2.10;99.90;;;;;;4158582;28;20125;-79
2023/03/03 08:01:29;;;;;;;10.63;4.05;;;2.10;99.90;;;;;;4148379;28;20053;-80
2023/03/03 08:03:34;;;;;;;9.75;4.38;;;2.20;99.90;;;;;;4152496;28;20102;-79
2023/03/03 08:05:42;;;;;;;13.45;4.63;;;2.30;99.90;;;;;;4179710;28;20049;-80
2023/03/03 08:07:43;;;;;;;9.32;4.22;;;2.20;99.90;;;;;;4172303;28;20564;-82
2023/03/03 08:10:00;;;;;;;11.40;5.00;;;2.70;99.90;;;;;;4165609;28;20045;-82
2023/03/03 08:12:18;;;;;;;9.77;3.97;;;2.70;99.90;;;;;;4181806;28;20493;-82
2023/03/03 08:14:26;;;;;;;7.82;4.10;;;2.30;99.90;;;;;;4144035;28;20060;-90
2023/03/03 08:16:37;;;;;;;8.83;3.43;;;2.40;99.90;;;;;;4158793;28;20437;-83
2023/03/03 08:18:47;;;;;;;6.40;3.20;;;2.50;99.90;;;;;;4178875;28;20045;-80
2023/03/03 08:20:50;;;;;;;5.93;2.97;;;2.50;99.90;;;;;;4160552;28;20087;-80
2023/03/03 08:22:50;;;;;;;9.30;3.05;;;2.60;99.90;;;;;;4164935;28;20042;-81
2023/03/03 08:24:51;;;;;;;8.65;2.70;;;2.60;99.90;;;;;;4165726;28;20096;-81
2023/03/03 08:26:52;;;;;;;10.20;3.65;;;2.60;99.90;;;;;;4143212;28;20383;-81
2023/03/03 08:28:54;;;;;;;7.45;3.17;;;2.60;99.90;;;;;;4162467;28;20049;-81
2023/03/03 08:30:55;;;;;;;6.47;2.33;;;3.00;99.90;;;;;;4161522;28;20045;-81
2023/03/03 08:32:56;;;;;;;9.20;2.63;;;2.70;99.90;;;;;;4164693;28;20123;-81
2023/03/03 08:34:56;;;;;;;8.30;2.50;;;2.70;99.90;;;;;;4161103;28;20124;-81
2023/03/03 08:36:58;;;;;;;7.35;2.63;;;2.80;99.90;;;;;;4166602;28;20045;-85
2023/03/03 08:38:59;;;;;;;6.00;2.35;;;2.80;99.90;;;;;;4150365;28;20058;-85
2023/03/03 08:41:00;;;;;;;8.52;2.92;;;2.80;99.90;;;;;;4178333;28;20465;-86
2023/03/03 08:43:01;;;;;;;7.53;2.95;;;2.80;99.90;;;;;;4159405;28;20097;-86
2023/03/03 08:45:02;;;;;;;8.80;2.72;;;3.80;99.90;;;;;;4162003;28;20042;-84
2023/03/03 08:47:02;;;;;;;7.32;3.30;;;2.90;99.90;;;;;;4166642;28;20490;-83
2023/03/03 08:49:03;;;;;;;7.35;3.17;;;2.90;99.90;;;;;;4170950;28;20060;-83
2023/03/03 08:51:13;;;;;;;8.82;3.53;;;3.50;99.90;;;;;;4150780;28;20049;-81
2023/03/03 08:53:18;;;;;;;9.10;3.00;;;3.40;99.90;;;;;;4169338;28;20103;-81
2023/03/03 08:55:20;;;;;;;7.70;3.60;;;3.20;99.90;;;;;;4163719;28;20833;-83
2023/03/03 08:57:21;;;;;;;9.13;2.90;;;3.20;99.90;;;;;;4134472;28;20046;-83
2023/03/03 08:59:22;;;;;;;11.38;2.72;;;3.60;99.90;;;;;;4134823;28;20525;-83
2023/03/03 09:01:24;;;;;;;6.28;3.20;;;3.40;99.90;;;;;;4165102;28;20124;-82
2023/03/03 09:03:24;;;;;;;6.03;2.78;;;3.40;99.90;;;;;;4163765;28;20045;-83
2023/03/03 09:05:26;;;;;;;7.60;2.80;;;3.60;99.90;;;;;;4164228;28;20600;-83
2023/03/03 09:07:27;;;;;;;3.95;2.20;;;4.20;99.90;;;;;;4159074;28;20136;-84
2023/03/03 09:09:27;;;;;;;4.55;2.00;;;3.80;99.90;;;;;;4150873;28;20470;-87
2023/03/03 09:11:28;;;;;;;6.72;2.40;;;3.80;99.90;;;;;;4145050;28;20046;-87
2023/03/03 09:13:30;;;;;;;7.35;2.65;;;4.00;99.90;;;;;;4151311;28;20386;-86
2023/03/03 09:15:35;;;;;;;6.72;2.63;;;4.50;99.90;;;;;;4143925;28;20041;-87
2023/03/03 09:17:36;;;;;;;5.75;2.80;;;4.20;99.90;;;;;;4162052;28;20045;-86
2023/03/03 09:19:37;;;;;;;6.45;3.60;;;4.40;99.90;;;;;;4159182;28;20501;-86
2023/03/03 09:21:41;;;;;;;12.20;3.25;;;4.30;99.90;;;;;;4149828;28;20068;-85
2023/03/03 09:23:42;;;;;;;8.68;2.67;;;4.40;99.90;;;;;;4164973;28;20113;-82
2023/03/03 09:25:45;;;;;;;7.55;2.70;;;4.60;99.90;;;;;;4158288;28;20050;-84
2023/03/03 09:27:46;;;;;;;4.28;2.10;;;4.70;99.90;;;;;;4161614;28;20163;-83
2023/03/03 09:29:47;;;;;;;17.77;3.47;;;4.80;99.90;;;;;;4164049;28;20037;-83
2023/03/03 09:31:54;;;;;;;3.88;1.80;;;5.00;99.90;;;;;;4141335;28;20084;-83
2023/03/03 09:33:56;;;;;;;4.45;2.35;;;5.20;99.90;;;;;;4147549;28;20050;-83
2023/03/03 09:36:22;;;;;;;7.78;2.45;;;5.30;99.90;;;;;;4158518;28;20080;-83
2023/03/03 09:38:29;;;;;;;7.93;2.97;;;5.70;99.90;;;;;;4160947;28;20422;-84
2023/03/03 09:40:37;;;;;;;6.43;2.30;;;5.60;99.90;;;;;;4151815;28;20045;-83
2023/03/03 09:42:53;;;;;;;5.88;1.70;;;5.70;99.90;;;;;;4159253;28;20049;-83
2023/03/03 09:45:16;;;;;;;3.45;1.77;;;5.70;99.90;;;;;;4148306;28;20046;-84
2023/03/03 09:47:42;;;;;;;8.55;1.98;;;5.80;99.90;;;;;;4132460;28;20487;-83
2023/03/03 09:50:37;;;;;;;3.60;1.77;;;5.90;99.90;;;;;;4166795;28;20052;-82
2023/03/03 09:53:00;;;;;;;8.00;2.25;;;5.90;99.90;;;;;;4104811;28;20039;-80
2023/03/03 09:55:22;;;;;;;4.50;1.90;;;6.10;99.90;;;;;;4128307;28;20104;-83
2023/03/03 09:57:48;;;;;;;6.18;1.60;;;6.00;99.90;;;;;;4147998;28;20038;-82
2023/03/03 10:00:08;;;;;;;3.47;1.40;;;6.00;99.90;;;;;;4142109;28;20054;-83
2023/03/03 10:02:31;;;;;;;22.80;2.70;;;6.00;99.90;;;;;;4148475;28;20066;-83
2023/03/03 10:04:42;;;;;;;6.43;2.33;;;6.10;99.90;;;;;;4146965;28;20097;-82
2023/03/03 10:07:07;;;;;;;4.60;1.77;;;6.10;99.90;;;;;;4146314;28;20427;-83
2023/03/03 10:09:43;;;;;;;5.63;1.92;;;6.10;99.90;;;;;;4148045;28;20164;-83
2023/03/03 10:12:02;;;;;;;7.78;1.95;;;6.10;99.90;;;;;;4131506;28;20425;-82
2023/03/03 10:14:34;;;;;;;6.68;2.25;;;6.10;99.90;;;;;;4147558;28;20121;-83
2023/03/03 10:17:00;;;;;;;3.63;1.40;;;6.20;99.90;;;;;;4147731;28;20056;-83
2023/03/03 10:19:17;;;;;;;5.95;2.20;;;6.30;99.90;;;;;;4131874;28;20054;-82
2023/03/03 10:21:31;;;;;;;5.13;2.00;;;6.30;99.90;;;;;;4145976;28;20054;-82
2023/03/03 10:23:50;;;;;;;5.50;1.77;;;6.40;99.90;;;;;;4148802;28;20520;-83
2023/03/03 10:26:00;;;;;;;;;;;6.50;99.90;;;;;;4177575;28;20075;-82
2023/03/03 10:28:06;;;;;;;5.68;1.40;;;6.60;99.90;;;;;;4186007;28;19924;-82
2023/03/03 10:30:42;;;;;;;2.78;0.98;;;6.70;99.90;;;;;;4185568;28;20045;-82
2023/03/03 10:32:52;;;;;;;3.42;1.15;;;6.70;99.90;;;;;;4146984;28;20050;-82
2023/03/03 10:35:13;;;;;;;4.60;1.35;;;6.80;99.90;;;;;;4202178;28;20079;-82
2023/03/03 10:37:54;;;;;;;1.08;0.82;;;6.90;99.90;;;;;;4200364;28;20052;-82
2023/03/03 10:40:10;;;;;;;2.20;0.70;;;7.00;99.90;;;;;;4145247;28;20061;-83
2023/03/03 10:42:23;;;;;;;4.32;0.70;;;7.10;99.90;;;;;;4178661;28;20106;-83
2023/03/03 10:44:35;;;;;;;1.48;0.85;;;7.20;99.90;;;;;;4197816;28;20055;-83
2023/03/03 10:47:07;;;;;;;6.25;1.33;;;7.30;99.90;;;;;;4198577;28;20045;-83
2023/03/03 10:49:38;;;;;;;5.78;0.80;;;7.40;99.90;;;;;;4180891;28;20531;-83
2023/03/03 10:52:07;;;;;;;7.53;0.95;;;7.50;99.90;;;;;;4198702;28;20052;-83
2023/03/03 10:54:36;;;;;;;2.25;0.82;;;7.60;99.90;;;;;;4180773;28;20769;-83
2023/03/03 10:56:45;;;;;;;3.80;0.52;;;7.80;99.90;;;;;;4171222;28;20494;-83
2023/03/03 10:59:08;;;;;;;2.13;0.50;;;7.90;99.90;;;;;;4185043;28;20160;-83